createdAt,value
2023-01-25T00:01:15.300Z,100186.00
2023-01-25T00:03:42.430Z,100162.00
2023-01-25T00:06:17.110Z,100182.00
2023-01-25T00:08:45.793Z,100179.00
2023-01-25T00:11:21.053Z,100175.00
2023-01-25T00:13:55.455Z,100164.00
2023-01-25T00:16:23.213Z,100169.00
2023-01-25T00:18:50.257Z,100177.00
2023-01-25T00:21:29.070Z,100172.00
2023-01-25T00:23:57.467Z,100141.00
2023-01-25T00:26:31.138Z,100175.00
2023-01-25T00:28:58.248Z,100131.00
2023-01-25T00:31:42.180Z,100157.00
2023-01-25T00:34:34.070Z,100177.00
2023-01-25T00:37:25.638Z,100171.00
2023-01-25T00:40:00.312Z,100176.00
2023-01-25T00:42:28.094Z,100137.00
2023-01-25T00:45:02.068Z,100177.00
2023-01-25T00:47:29.568Z,100161.00
2023-01-25T00:49:56.867Z,100155.00
2023-01-25T00:52:31.100Z,100153.00
2023-01-25T00:55:05.514Z,100165.00
2023-01-25T00:57:32.878Z,100151.00
2023-01-25T01:00:00.698Z,100157.00
2023-01-25T01:02:35.130Z,100160.00
2023-01-25T01:05:16.615Z,100150.00
2023-01-25T01:07:51.151Z,100153.00
2023-01-25T01:10:19.699Z,100159.00
2023-01-25T01:12:47.005Z,100113.00
2023-01-25T01:15:20.118Z,100126.00
2023-01-25T01:17:47.077Z,100136.00
2023-01-25T01:20:15.207Z,100178.00
2023-01-25T01:22:53.473Z,100149.00
2023-01-25T01:25:20.632Z,100168.00
2023-01-25T01:27:55.110Z,100140.00
2023-01-25T01:30:23.838Z,100164.00
2023-01-25T01:32:51.985Z,100145.00
2023-01-25T01:35:26.553Z,100176.00
2023-01-25T01:38:01.188Z,100169.00
2023-01-25T01:40:28.809Z,100164.00
2023-01-25T01:43:15.342Z,100149.00
2023-01-25T01:45:49.409Z,100170.00
2023-01-25T01:48:45.063Z,100175.00
2023-01-25T01:51:58.242Z,100163.00
2023-01-25T01:55:03.170Z,100173.00
2023-01-25T01:57:42.506Z,100171.00
2023-01-25T02:00:23.161Z,100172.00
2023-01-25T02:02:51.296Z,100164.00
2023-01-25T02:06:02.829Z,100167.00
2023-01-25T02:08:33.085Z,100167.00
2023-01-25T02:11:08.647Z,100172.00
2023-01-25T02:13:36.312Z,100177.00
2023-01-25T02:16:10.125Z,100182.00
2023-01-25T02:18:37.134Z,100172.00
2023-01-25T02:21:11.112Z,100146.00
2023-01-25T02:24:16.250Z,100140.00
2023-01-25T02:26:43.336Z,100173.00
2023-01-25T02:29:10.314Z,100173.00
2023-01-25T02:31:44.201Z,100171.00
2023-01-25T02:34:11.303Z,100166.00
2023-01-25T02:36:45.172Z,100179.00
2023-01-25T02:39:15.075Z,100181.00
2023-01-25T02:41:50.066Z,100175.00
2023-01-25T02:44:29.194Z,100168.00
2023-01-25T02:46:56.209Z,100162.00
2023-01-25T02:49:30.145Z,100165.00
2023-01-25T02:52:04.118Z,100182.00
2023-01-25T02:54:31.206Z,100190.00
2023-01-25T02:57:05.176Z,100170.00
2023-01-25T02:59:32.216Z,100170.00
2023-01-25T03:01:59.247Z,100178.00
2023-01-25T03:04:33.114Z,100177.00
2023-01-25T03:07:00.127Z,100172.00
2023-01-25T03:09:34.233Z,100165.00
2023-01-25T03:12:01.393Z,100165.00
2023-01-25T03:14:35.124Z,100171.00
2023-01-25T03:17:08.164Z,100169.00
2023-01-25T03:19:42.163Z,100147.00
2023-01-25T03:22:09.289Z,100165.00
2023-01-25T03:24:43.238Z,100178.00
2023-01-25T03:27:10.225Z,100176.00
2023-01-25T03:29:38.047Z,100174.00
2023-01-25T03:32:12.201Z,100151.00
2023-01-25T03:34:39.266Z,100167.00
2023-01-25T03:37:13.276Z,100144.00
2023-01-25T03:39:40.908Z,100147.00
2023-01-25T03:42:14.112Z,100156.00
2023-01-25T03:44:41.221Z,100147.00
2023-01-25T03:47:08.332Z,100158.00
2023-01-25T03:49:42.233Z,100151.00
2023-01-25T03:52:09.255Z,100145.00
2023-01-25T03:54:43.168Z,100154.00
2023-01-25T03:57:10.302Z,100154.00
2023-01-25T03:59:44.169Z,100144.00
2023-01-25T04:02:11.322Z,100130.00
2023-01-25T04:04:38.310Z,100141.00
2023-01-25T04:07:12.156Z,100140.00
2023-01-25T04:09:39.230Z,100126.00
2023-01-25T04:12:06.501Z,100130.00
2023-01-25T04:14:44.751Z,100120.00
2023-01-25T04:17:11.959Z,100102.00
2023-01-25T04:19:45.144Z,100122.00
2023-01-25T04:22:12.271Z,100120.00
2023-01-25T04:24:39.339Z,100130.00
2023-01-25T04:27:13.196Z,100121.00
2023-01-25T04:29:42.013Z,100123.00
2023-01-25T04:32:16.305Z,100125.00
2023-01-25T04:34:43.456Z,100128.00
2023-01-25T04:37:17.307Z,100126.00
2023-01-25T04:39:44.385Z,100135.00
2023-01-25T04:42:11.364Z,100131.00
2023-01-25T04:44:45.183Z,100132.00
2023-01-25T04:47:12.249Z,100143.00
2023-01-25T04:49:52.216Z,100137.00
2023-01-25T04:52:19.623Z,100115.00
2023-01-25T04:54:53.239Z,100130.00
2023-01-25T04:57:20.405Z,100123.00
2023-01-25T04:59:47.391Z,100133.00
2023-01-25T05:02:21.249Z,100145.00
2023-01-25T05:04:48.340Z,100149.00
2023-01-25T05:07:22.304Z,100146.00
2023-01-25T05:09:49.322Z,100141.00
2023-01-25T05:12:16.383Z,100153.00
2023-01-25T05:14:50.211Z,100149.00
2023-01-25T05:17:17.168Z,100154.00
2023-01-25T05:19:50.236Z,100161.00
2023-01-25T05:22:18.339Z,100157.00
2023-01-25T05:24:52.192Z,100153.00
2023-01-25T05:27:26.227Z,100134.00
2023-01-25T05:29:53.409Z,100152.00
2023-01-25T05:32:21.973Z,100130.00
2023-01-25T05:34:55.244Z,100156.00
2023-01-25T05:37:22.358Z,100151.00
2023-01-25T05:39:56.264Z,100147.00
2023-01-25T05:42:23.293Z,100153.00
2023-01-25T05:44:57.184Z,100149.00
2023-01-25T05:47:24.158Z,100145.00
2023-01-25T05:49:57.250Z,100138.00
2023-01-25T05:52:24.250Z,100130.00
2023-01-25T05:54:57.248Z,100107.00
2023-01-25T05:57:24.354Z,100118.00
2023-01-25T05:59:51.461Z,100128.00
2023-01-25T06:03:37.868Z,100084.00
2023-01-25T06:06:05.181Z,100107.00
2023-01-25T06:08:32.501Z,100089.00
2023-01-25T06:11:12.883Z,100120.00
2023-01-25T06:13:46.850Z,100122.00
2023-01-25T06:16:13.953Z,100094.00
2023-01-25T06:18:47.876Z,100093.00
2023-01-25T06:21:21.804Z,100112.00
2023-01-25T06:23:48.906Z,100095.00
2023-01-25T06:26:16.074Z,100098.00
2023-01-25T06:28:50.685Z,100095.00
2023-01-25T06:31:18.854Z,100094.00
2023-01-25T06:33:58.856Z,100057.00
2023-01-25T06:36:26.821Z,100077.00
2023-01-25T06:39:00.825Z,100056.00
2023-01-25T06:41:27.832Z,100063.00
2023-01-25T06:44:01.807Z,100069.00
2023-01-25T06:46:28.853Z,100068.00
2023-01-25T06:49:02.785Z,100067.00
2023-01-25T06:51:29.863Z,100032.00
2023-01-25T06:54:03.877Z,100034.00
2023-01-25T06:56:30.852Z,100016.00
2023-01-25T06:59:04.797Z,100027.00
2023-01-25T07:01:31.748Z,100025.00
2023-01-25T07:04:08.058Z,100037.00
2023-01-25T07:06:35.124Z,100042.00
2023-01-25T07:09:13.859Z,100032.00
2023-01-25T07:11:40.958Z,100032.00
2023-01-25T07:14:14.812Z,100045.00
2023-01-25T07:16:48.863Z,100037.00
2023-01-25T07:19:15.738Z,100035.00
2023-01-25T07:21:48.853Z,100035.00
2023-01-25T07:24:17.662Z,100014.00
2023-01-25T07:26:44.754Z,100022.00
2023-01-25T07:29:22.864Z,100009.00
2023-01-25T07:31:49.897Z,100019.00
2023-01-25T07:34:16.890Z,99998.00
2023-01-25T07:36:50.864Z,100025.00
2023-01-25T07:39:17.880Z,100013.00
2023-01-25T07:41:51.838Z,100015.00
2023-01-25T07:44:25.875Z,99992.00
2023-01-25T07:46:53.922Z,100006.00
2023-01-25T07:49:27.851Z,99997.00
2023-01-25T07:51:54.935Z,99980.00
2023-01-25T07:54:23.730Z,100004.00
2023-01-25T07:56:56.797Z,99980.00
2023-01-25T07:59:24.700Z,99995.00
2023-01-25T08:01:57.823Z,99979.00
2023-01-25T08:04:24.864Z,99986.00
2023-01-25T08:06:57.845Z,100004.00
2023-01-25T08:09:24.862Z,99999.00
2023-01-25T08:11:51.965Z,99992.00
2023-01-25T08:14:25.894Z,100013.00
2023-01-25T08:16:52.847Z,100007.00
2023-01-25T08:19:19.907Z,100015.00
2023-01-25T08:21:53.851Z,99999.00
2023-01-25T08:24:21.121Z,100016.00
2023-01-25T08:26:54.857Z,100007.00
2023-01-25T08:29:21.871Z,100012.00
2023-01-25T08:31:55.894Z,100013.00
2023-01-25T08:34:29.856Z,99979.00
2023-01-25T08:36:56.875Z,99986.00
2023-01-25T08:39:30.837Z,100004.00
2023-01-25T08:41:57.912Z,99974.00
2023-01-25T08:44:31.816Z,100015.00
2023-01-25T08:47:06.181Z,100014.00
2023-01-25T08:49:40.119Z,100021.00
2023-01-25T08:52:07.377Z,100009.00
2023-01-25T08:54:40.973Z,100017.00
2023-01-25T08:57:07.891Z,100004.00
2023-01-25T08:59:41.894Z,100011.00
2023-01-25T09:02:18.933Z,99981.00
2023-01-25T09:04:45.940Z,99992.00
2023-01-25T09:07:19.939Z,100018.00
2023-01-25T09:09:46.994Z,99998.00
2023-01-25T09:12:14.020Z,100012.00
2023-01-25T09:14:47.882Z,100029.00
2023-01-25T09:17:14.872Z,100008.00
2023-01-25T09:19:47.933Z,100005.00
2023-01-25T09:22:14.867Z,100029.00
2023-01-25T09:24:48.965Z,100016.00
2023-01-25T09:27:16.023Z,100013.00
2023-01-25T09:30:01.334Z,100035.00
2023-01-25T09:32:29.255Z,100015.00
2023-01-25T09:35:02.842Z,100014.00
2023-01-25T09:37:29.810Z,100026.00
2023-01-25T09:40:02.942Z,100026.00
2023-01-25T09:42:56.818Z,100033.00
2023-01-25T09:45:38.941Z,100019.00
2023-01-25T09:48:20.928Z,100019.00
2023-01-25T09:51:27.002Z,100023.00
2023-01-25T09:54:00.944Z,100023.00
2023-01-25T09:56:33.596Z,100019.00
2023-01-25T09:59:10.943Z,100014.00
2023-01-25T10:02:31.315Z,100022.00
2023-01-25T10:05:12.894Z,100027.00
2023-01-25T10:08:04.090Z,100007.00
2023-01-25T10:10:44.946Z,100000.00
2023-01-25T10:13:19.885Z,100005.00
2023-01-25T10:15:57.414Z,100009.00
2023-01-25T10:18:48.919Z,100004.00
2023-01-25T10:21:37.966Z,99994.00
2023-01-25T10:24:40.702Z,99992.00
2023-01-25T10:27:42.916Z,100008.00
2023-01-25T10:30:50.962Z,99998.00
2023-01-25T10:33:19.721Z,99990.00
2023-01-25T10:35:48.576Z,99955.00
2023-01-25T10:38:32.947Z,99969.00
2023-01-25T10:41:05.362Z,99945.00
2023-01-25T10:43:39.056Z,99983.00
2023-01-25T10:46:23.717Z,99968.00
2023-01-25T10:48:56.971Z,99955.00
2023-01-25T10:51:34.170Z,99939.00
2023-01-25T11:16:03.981Z,99922.00
2023-01-25T11:53:12.967Z,99846.00
2023-01-25T11:56:41.166Z,99835.00
2023-01-25T11:59:33.824Z,99819.00
2023-01-25T12:02:33.037Z,99783.00
2023-01-25T12:05:24.633Z,99809.00
2023-01-25T12:08:07.177Z,99817.00
2023-01-25T12:11:17.132Z,99798.00
2023-01-25T12:14:21.457Z,99801.00
2023-01-25T12:17:47.358Z,99794.00
2023-01-25T12:21:13.389Z,99789.00
2023-01-25T12:24:38.912Z,99797.00
2023-01-25T12:27:40.035Z,99784.00
2023-01-25T12:31:05.098Z,99779.00
2023-01-25T12:33:45.729Z,99756.00
2023-01-25T12:36:52.060Z,99762.00
2023-01-25T12:39:52.129Z,99750.00
2023-01-25T12:42:32.970Z,99746.00
2023-01-25T12:45:05.938Z,99741.00
2023-01-25T12:48:11.021Z,99734.00
2023-01-25T12:51:02.948Z,99730.00
2023-01-25T12:53:42.543Z,99722.00
2023-01-25T12:56:33.467Z,99711.00
2023-01-25T12:59:35.018Z,99715.00
2023-01-25T13:10:33.182Z,99716.00
2023-01-25T13:13:24.730Z,99685.00
2023-01-25T13:15:59.001Z,99712.00
2023-01-25T13:18:30.531Z,99705.00
2023-01-25T13:21:06.042Z,99697.00
2023-01-25T13:23:44.224Z,99691.00
2023-01-25T13:26:29.961Z,99684.00
2023-01-25T13:29:17.017Z,99669.00
2023-01-25T13:31:53.321Z,99688.00
2023-01-25T13:34:43.189Z,99691.00
2023-01-25T13:37:31.078Z,99679.00
2023-01-25T13:40:43.084Z,99687.00
2023-01-25T13:43:22.962Z,99681.00
2023-01-25T13:45:52.524Z,99664.00
2023-01-25T13:48:31.505Z,99658.00
2023-01-25T13:51:04.395Z,99655.00
2023-01-25T13:53:38.059Z,99680.00
2023-01-25T13:56:11.970Z,99657.00
2023-01-25T13:58:53.068Z,99668.00
2023-01-25T14:01:20.632Z,99668.00
2023-01-25T14:04:06.058Z,99666.00
2023-01-25T14:06:46.086Z,99671.00
2023-01-25T14:09:17.900Z,99640.00
2023-01-25T14:11:57.079Z,99658.00
2023-01-25T14:14:36.467Z,99672.00
2023-01-25T14:17:24.153Z,99668.00
2023-01-25T14:19:55.170Z,99642.00
2023-01-25T14:22:34.081Z,99638.00
2023-01-25T14:25:32.020Z,99650.00
2023-01-25T14:28:10.032Z,99649.00
2023-01-25T14:30:37.156Z,99645.00
2023-01-25T14:33:40.022Z,99648.00
2023-01-25T14:36:24.364Z,99635.00
2023-01-25T14:38:59.051Z,99640.00
2023-01-25T14:41:28.994Z,99636.00
2023-01-25T14:43:58.363Z,99615.00
2023-01-25T14:46:39.090Z,99647.00
2023-01-25T14:49:12.204Z,99629.00
2023-01-25T14:52:05.114Z,99629.00
2023-01-25T14:54:37.448Z,99584.00
2023-01-25T14:57:13.069Z,99623.00
2023-01-25T14:59:45.264Z,99601.00
2023-01-25T15:02:41.221Z,99635.00
2023-01-25T15:05:23.188Z,99626.00
2023-01-25T15:08:04.043Z,99615.00
2023-01-25T15:10:39.095Z,99626.00
2023-01-25T15:13:15.576Z,99631.00
2023-01-25T15:16:07.016Z,99629.00
2023-01-25T15:18:51.609Z,99632.00
2023-01-25T15:21:26.047Z,99632.00
2023-01-25T15:23:54.017Z,99638.00
2023-01-25T15:26:38.079Z,99625.00
2023-01-25T15:29:17.063Z,99617.00
2023-01-25T15:31:51.090Z,99631.00
2023-01-25T15:34:21.148Z,99604.00
2023-01-25T15:36:55.106Z,99620.00
2023-01-25T15:39:22.246Z,99608.00
2023-01-25T15:41:56.191Z,99625.00
2023-01-25T15:44:23.290Z,99612.00
2023-01-25T15:46:51.171Z,99619.00
2023-01-25T15:49:33.106Z,99615.00
2023-01-25T15:52:07.105Z,99625.00
2023-01-25T15:54:48.586Z,99620.00
2023-01-25T15:57:32.173Z,99624.00
2023-01-25T16:00:06.115Z,99625.00
2023-01-25T16:02:33.059Z,99579.00
2023-01-25T16:05:00.130Z,99589.00
2023-01-25T16:07:36.189Z,99592.00
2023-01-25T16:10:10.431Z,99618.00
2023-01-25T16:12:37.747Z,99595.00
2023-01-25T16:15:12.149Z,99616.00
2023-01-25T16:17:46.155Z,99621.00
2023-01-25T16:20:21.034Z,99613.00
2023-01-25T16:22:54.104Z,99616.00
2023-01-25T16:25:21.245Z,99610.00
2023-01-25T16:27:56.081Z,99613.00
2023-01-25T16:30:25.032Z,99620.00
2023-01-25T16:32:59.044Z,99621.00
2023-01-25T16:35:32.075Z,99612.00
2023-01-25T16:37:59.084Z,99609.00
2023-01-25T16:40:35.103Z,99605.00
2023-01-25T16:43:09.175Z,99599.00
2023-01-25T16:45:36.215Z,99611.00
2023-01-25T16:48:10.058Z,99619.00
2023-01-25T16:50:37.106Z,99613.00
2023-01-25T16:53:10.091Z,99621.00
2023-01-25T16:55:37.828Z,99613.00
2023-01-25T16:58:04.799Z,99607.00
2023-01-25T17:00:38.101Z,99612.00
2023-01-25T17:03:11.180Z,99602.00
2023-01-25T17:05:45.095Z,99612.00
2023-01-25T17:08:19.113Z,99597.00
2023-01-25T17:10:59.143Z,99617.00
2023-01-25T17:13:26.183Z,99587.00
2023-01-25T17:16:03.187Z,99577.00
2023-01-25T17:18:30.173Z,99608.00
2023-01-25T17:21:01.903Z,99606.00
2023-01-25T17:23:35.143Z,99602.00
2023-01-25T17:26:19.106Z,99600.00
2023-01-25T17:28:53.168Z,99599.00
2023-01-25T17:31:29.127Z,99579.00
2023-01-25T17:34:03.131Z,99594.00
2023-01-25T17:36:30.096Z,99580.00
2023-01-25T17:39:07.153Z,99567.00
2023-01-25T17:41:34.393Z,99576.00
2023-01-25T17:44:08.169Z,99567.00
2023-01-25T17:46:42.138Z,99578.00
2023-01-25T17:49:12.415Z,99565.00
2023-01-25T17:51:46.199Z,99561.00
2023-01-25T17:54:13.334Z,99563.00
2023-01-25T17:56:47.217Z,99581.00
2023-01-25T17:59:14.316Z,99555.00
2023-01-25T18:01:41.866Z,99566.00
2023-01-25T18:04:16.204Z,99534.00
2023-01-25T18:06:43.319Z,99568.00
2023-01-25T18:09:17.152Z,99570.00
2023-01-25T18:11:44.200Z,99564.00
2023-01-25T18:14:19.184Z,99547.00
2023-01-25T18:16:46.126Z,99557.00
2023-01-25T18:19:20.185Z,99554.00
2023-01-25T18:21:47.159Z,99539.00
2023-01-25T18:24:40.151Z,99553.00
2023-01-25T18:27:19.355Z,99554.00
2023-01-25T18:30:11.320Z,99530.00
2023-01-25T18:32:38.376Z,99494.00
2023-01-25T18:35:12.561Z,99511.00
2023-01-25T18:37:39.893Z,99516.00
2023-01-25T18:40:08.013Z,99544.00
2023-01-25T18:42:41.216Z,99544.00
2023-01-25T18:45:12.040Z,99538.00
2023-01-25T18:47:46.154Z,99513.00
2023-01-25T18:50:13.372Z,99532.00
2023-01-25T18:52:47.220Z,99533.00
2023-01-25T18:55:14.187Z,99535.00
2023-01-25T18:57:41.204Z,99518.00
2023-01-25T19:00:15.189Z,99504.00
2023-01-25T19:02:42.203Z,99513.00
2023-01-25T19:05:16.246Z,99498.00
2023-01-25T19:07:56.114Z,99503.00
2023-01-25T19:10:29.190Z,99507.00
2023-01-25T19:13:03.146Z,99516.00
2023-01-25T19:15:30.195Z,99492.00
2023-01-25T19:18:04.294Z,99508.00
2023-01-25T19:20:31.367Z,99508.00
2023-01-25T19:23:05.224Z,99482.00
2023-01-25T19:25:32.209Z,99499.00
2023-01-25T19:28:06.193Z,99462.00
2023-01-25T19:30:33.254Z,99506.00
2023-01-25T19:33:07.266Z,99500.00
2023-01-25T19:35:42.273Z,99490.00
2023-01-25T19:38:09.432Z,99498.00
2023-01-25T19:40:43.218Z,99471.00
2023-01-25T19:43:10.287Z,99445.00
2023-01-25T19:45:44.235Z,99483.00
2023-01-25T19:48:11.216Z,99477.00
2023-01-25T19:50:45.289Z,99454.00
2023-01-25T19:53:12.447Z,99471.00
2023-01-25T19:55:46.253Z,99463.00
2023-01-25T19:58:20.211Z,99408.00
2023-01-25T20:00:47.273Z,99451.00
2023-01-25T20:03:21.251Z,99442.00
2023-01-25T20:05:58.189Z,99466.00
2023-01-25T20:08:34.256Z,99426.00
2023-01-25T20:11:02.879Z,99422.00
2023-01-25T20:13:29.930Z,99457.00
2023-01-25T20:16:04.273Z,99417.00
2023-01-25T20:18:31.935Z,99416.00
2023-01-25T20:21:17.246Z,99443.00
2023-01-25T20:23:48.098Z,99436.00
2023-01-25T20:26:27.178Z,99433.00
2023-01-25T20:28:55.175Z,99428.00
2023-01-25T20:31:43.260Z,99438.00
2023-01-25T20:34:28.277Z,99412.00
2023-01-25T20:37:02.354Z,99416.00
2023-01-25T20:39:29.495Z,99398.00
2023-01-25T20:41:56.491Z,99437.00
2023-01-25T20:44:30.254Z,99410.00
2023-01-25T20:47:04.193Z,99426.00
2023-01-25T20:49:31.192Z,99401.00
2023-01-25T20:51:58.229Z,99419.00
2023-01-25T20:54:32.232Z,99398.00
2023-01-25T20:56:59.249Z,99362.00
2023-01-25T20:59:33.188Z,99388.00
2023-01-25T21:02:00.345Z,99406.00
2023-01-25T21:04:27.378Z,99409.00
2023-01-25T21:07:01.214Z,99381.00
2023-01-25T21:09:28.384Z,99387.00
2023-01-25T21:12:02.198Z,99417.00
2023-01-25T21:14:29.221Z,99357.00
2023-01-25T21:16:56.342Z,99377.00
2023-01-25T21:19:30.253Z,99385.00
2023-01-25T21:22:03.435Z,99393.00
2023-01-25T21:24:30.567Z,99385.00
2023-01-25T21:27:04.246Z,99378.00
2023-01-25T21:29:31.541Z,99368.00
2023-01-25T21:31:58.735Z,99391.00
2023-01-25T21:34:32.249Z,99384.00
2023-01-25T21:36:59.723Z,99365.00
2023-01-25T21:39:34.246Z,99343.00
2023-01-25T21:42:01.452Z,99371.00
2023-01-25T21:44:28.498Z,99365.00
2023-01-25T21:47:28.999Z,99371.00
2023-01-25T21:49:54.186Z,99349.00
2023-01-25T21:52:27.263Z,99327.00
2023-01-25T21:54:54.256Z,99349.00
2023-01-25T21:57:28.243Z,99344.00
2023-01-25T21:59:55.334Z,99350.00
2023-01-25T22:02:22.450Z,99305.00
2023-01-25T22:04:56.224Z,99328.00
2023-01-25T22:07:29.292Z,99337.00
2023-01-25T22:09:56.334Z,99318.00
2023-01-25T22:12:30.315Z,99322.00
2023-01-25T22:14:57.474Z,99337.00
2023-01-25T22:17:24.687Z,99327.00
2023-01-25T22:19:58.361Z,99300.00
2023-01-25T22:22:25.498Z,99282.00
2023-01-25T22:24:59.289Z,99318.00
2023-01-25T22:27:56.332Z,99286.00
2023-01-25T22:30:23.531Z,99259.00
2023-01-25T22:32:57.303Z,99315.00
2023-01-25T22:35:24.308Z,99306.00
2023-01-25T22:38:05.279Z,99268.00
2023-01-25T22:40:39.309Z,99292.00
2023-01-25T22:43:06.416Z,99280.00
2023-01-25T22:45:40.471Z,99261.00
2023-01-25T22:48:07.485Z,99300.00
2023-01-25T22:50:43.269Z,99297.00
2023-01-25T22:53:10.272Z,99287.00
2023-01-25T22:55:53.396Z,99246.00
2023-01-25T22:58:20.529Z,99267.00
2023-01-25T23:00:54.352Z,99275.00
2023-01-25T23:03:21.469Z,99236.00
2023-01-25T23:05:48.619Z,99234.00
2023-01-25T23:08:22.368Z,99269.00
2023-01-25T23:10:52.407Z,99209.00
2023-01-25T23:13:27.465Z,99199.00
2023-01-25T23:15:57.294Z,99210.00
2023-01-25T23:18:31.282Z,99255.00
2023-01-25T23:21:02.553Z,99225.00
2023-01-25T23:27:27.267Z,99228.00
2023-01-25T23:30:01.337Z,99239.00
2023-01-25T23:32:28.976Z,99228.00
2023-01-25T23:35:02.426Z,99236.00
2023-01-25T23:37:29.525Z,99223.00
2023-01-25T23:40:05.388Z,99226.00
2023-01-25T23:42:39.507Z,99176.00
2023-01-25T23:45:08.489Z,99225.00
2023-01-25T23:47:46.382Z,99179.00
2023-01-25T23:50:20.390Z,99192.00
2023-01-25T23:52:54.408Z,99212.00
2023-01-25T23:55:21.483Z,99194.00
2023-01-25T23:57:55.372Z,99170.00
